Time;durP1;ratioP1;P1;durP2;ratioP2;P2;SDS_P1;SDS_P2;PMS_P1;PMS_P2;Temp;Humidity;BMP_temperature;BMP_pressure;BME280_temperature;BME280_humidity;BME280_pressure;Samples;Min_cycle;Max_cycle;Signal;HPM_P1;HPM_P2
2022/08/22 00:00:23;;;;;;;2.85;1.73;;;23.60;99.90;;;;;;1053530;28;20081;-65
2022/08/22 00:01:18;;;;;;;4.03;1.90;;;23.70;99.90;;;;;;1055477;28;20061;-65
2022/08/22 00:02:18;;;;;;;5.10;2.35;;;23.60;99.90;;;;;;1055745;28;20024;-65
2022/08/22 00:03:19;;;;;;;2.85;1.67;;;23.60;99.90;;;;;;1046158;28;20030;-65
2022/08/22 00:04:28;;;;;;;3.70;2.08;;;23.60;99.90;;;;;;1055753;28;20027;-65
2022/08/22 00:05:12;;;;;;;4.93;2.35;;;23.60;99.90;;;;;;1055433;28;20043;-65
2022/08/22 00:05:59;;;;;;;3.15;1.60;;;23.60;99.90;;;;;;1055857;28;20685;-65
2022/08/22 00:06:48;;;;;;;4.22;1.70;;;23.60;99.90;;;;;;1056002;28;20011;-66
2022/08/22 00:07:43;;;;;;;3.28;1.92;;;23.50;99.90;;;;;;1055596;28;20020;-65
2022/08/22 00:08:44;;;;;;;3.47;1.70;;;23.50;99.90;;;;;;1055534;28;20019;-66
2022/08/22 00:09:44;;;;;;;4.57;2.15;;;23.50;99.90;;;;;;1051369;28;20023;-66
2022/08/22 00:10:37;;;;;;;5.60;1.88;;;23.50;99.90;;;;;;1046786;28;20012;-65
2022/08/22 00:11:57;;;;;;;3.92;1.92;;;23.50;99.90;;;;;;1050052;28;20027;-65
2022/08/22 00:12:42;;;;;;;3.25;2.17;;;23.50;99.90;;;;;;1050479;28;20437;-66
2022/08/22 00:13:33;;;;;;;3.08;1.83;;;23.50;99.90;;;;;;1055622;28;20054;-66
2022/08/22 00:14:20;;;;;;;4.53;2.33;;;23.50;99.90;;;;;;1055538;28;20015;-66
2022/08/22 00:15:13;;;;;;;3.10;1.52;;;23.50;99.90;;;;;;1055752;28;20031;-66
2022/08/22 00:16:13;;;;;;;5.20;1.52;;;23.50;99.90;;;;;;1055431;28;20047;-66
2022/08/22 00:16:49;;;;;;;4.60;1.70;;;23.50;99.90;;;;;;1038008;28;20522;-66
2022/08/22 00:17:32;;;;;;;5.25;1.90;;;23.50;99.90;;;;;;1042785;28;20033;-65
2022/08/22 00:18:16;;;;;;;3.33;1.90;;;23.50;99.90;;;;;;1051498;28;20016;-65
2022/08/22 00:19:12;;;;;;;2.70;1.60;;;23.50;99.90;;;;;;1051283;28;20082;-65
2022/08/22 00:19:47;;;;;;;5.07;1.92;;;23.50;99.90;;;;;;1055515;28;20503;-66
2022/08/22 00:20:28;;;;;;;2.63;1.67;;;23.50;99.90;;;;;;1056009;28;20119;-65
2022/08/22 00:21:14;;;;;;;3.63;2.10;;;23.50;99.90;;;;;;1055677;28;20546;-64
2022/08/22 00:21:58;;;;;;;3.67;2.17;;;23.50;99.90;;;;;;1055940;28;20480;-65
2022/08/22 00:23:07;;;;;;;2.88;1.77;;;23.50;99.90;;;;;;1055955;28;20817;-64
2022/08/22 00:23:46;;;;;;;4.63;2.08;;;23.50;99.90;;;;;;1055981;28;20028;-64
2022/08/22 00:24:27;;;;;;;3.78;1.90;;;23.50;99.90;;;;;;1055686;28;20030;-65
2022/08/22 00:25:20;;;;;;;3.22;1.80;;;23.50;99.90;;;;;;1055693;28;20490;-65
2022/08/22 00:26:02;;;;;;;3.10;1.75;;;23.50;99.90;;;;;;1055822;28;20028;-64
2022/08/22 00:26:48;;;;;;;3.15;1.73;;;23.50;99.90;;;;;;1051429;28;20078;-64
2022/08/22 00:27:42;;;;;;;4.07;2.08;;;23.50;99.90;;;;;;1051204;28;20181;-64
2022/08/22 00:28:16;;;;;;;2.28;1.65;;;23.50;99.90;;;;;;1052579;28;20062;-66
2022/08/22 00:29:01;;;;;;;2.90;1.70;;;23.50;99.90;;;;;;1056006;28;20034;-65
2022/08/22 00:29:50;;;;;;;3.92;1.60;;;23.40;99.90;;;;;;1055935;28;20062;-64
2022/08/22 00:30:21;;;;;;;5.28;1.70;;;23.40;99.90;;;;;;1055625;28;20023;-65
2022/08/22 00:31:15;;;;;;;3.92;1.85;;;23.40;99.90;;;;;;1053026;28;20485;-65
2022/08/22 00:32:04;;;;;;;3.40;2.00;;;23.40;99.90;;;;;;1038634;28;20060;-64
2022/08/22 00:32:49;;;;;;;4.72;2.22;;;23.40;99.90;;;;;;1040988;28;20017;-64
2022/08/22 00:33:31;;;;;;;3.35;1.80;;;23.40;99.90;;;;;;1051309;28;20024;-65
2022/08/22 00:34:22;;;;;;;2.97;1.85;;;23.40;99.90;;;;;;1051675;28;20031;-65
2022/08/22 00:35:20;;;;;;;2.13;1.73;;;23.40;99.90;;;;;;1051548;28;20090;-65
2022/08/22 00:36:04;;;;;;;4.43;2.03;;;23.40;99.90;;;;;;1047410;28;20025;-66
2022/08/22 00:36:51;;;;;;;4.10;2.15;;;23.40;99.90;;;;;;1047002;28;20024;-64
2022/08/22 00:37:44;;;;;;;4.35;1.83;;;23.40;99.90;;;;;;1047124;28;20036;-65
2022/08/22 00:38:27;;;;;;;5.30;2.22;;;23.40;99.90;;;;;;1040516;28;20963;-65
2022/08/22 00:39:24;;;;;;;3.47;2.08;;;23.40;99.90;;;;;;1051621;28;20124;-65
2022/08/22 00:40:19;;;;;;;4.50;1.77;;;23.40;99.90;;;;;;1051551;28;20008;-65
2022/08/22 00:41:02;;;;;;;4.43;2.05;;;23.40;99.90;;;;;;1051425;28;20095;-65
2022/08/22 00:41:43;;;;;;;3.38;1.70;;;23.40;99.90;;;;;;1051763;28;20016;-65
2022/08/22 00:42:41;;;;;;;3.45;1.70;;;23.40;99.90;;;;;;1051888;28;20035;-66
2022/08/22 00:43:30;;;;;;;3.00;2.20;;;23.40;99.90;;;;;;1051809;28;20012;-65
2022/08/22 00:44:34;;;;;;;3.97;2.13;;;23.40;99.90;;;;;;1051317;28;20058;-66
2022/08/22 00:45:37;;;;;;;4.05;1.90;;;23.40;99.90;;;;;;1051499;28;20146;-65
2022/08/22 00:46:36;;;;;;;3.90;2.42;;;23.40;99.90;;;;;;1038450;28;20025;-66
2022/08/22 00:47:15;;;;;;;3.10;1.67;;;23.40;99.90;;;;;;1038478;28;20033;-65
2022/08/22 00:47:54;;;;;;;2.35;1.45;;;23.40;99.90;;;;;;1038602;28;20172;-66
2022/08/22 00:48:34;;;;;;;2.70;1.80;;;23.30;99.90;;;;;;1055942;28;20308;-65
2022/08/22 00:49:55;;;;;;;4.43;1.67;;;23.30;99.90;;;;;;1055527;28;20064;-66
2022/08/22 00:50:28;;;;;;;5.13;1.70;;;23.30;99.90;;;;;;1042542;28;20036;-66
2022/08/22 00:51:30;;;;;;;3.05;2.05;;;23.30;99.90;;;;;;1043299;28;20040;-65
2022/08/22 00:52:44;;;;;;;3.75;2.08;;;23.30;99.90;;;;;;1034463;28;20010;-66
2022/08/22 00:53:43;;;;;;;4.80;2.20;;;23.30;99.90;;;;;;1051446;28;20886;-65
2022/08/22 00:54:14;;;;;;;3.47;1.73;;;23.30;99.90;;;;;;1046919;28;20051;-65
2022/08/22 00:55:25;;;;;;;4.67;2.20;;;23.30;99.90;;;;;;1046790;28;20052;-66
2022/08/22 00:56:20;;;;;;;3.90;1.90;;;23.30;99.90;;;;;;1048568;28;20091;-66
2022/08/22 00:57:12;;;;;;;3.63;1.60;;;23.30;99.90;;;;;;1052725;28;20019;-66
2022/08/22 00:57:57;;;;;;;2.85;1.88;;;23.30;99.90;;;;;;1055317;28;20030;-64
2022/08/22 00:58:58;;;;;;;3.22;2.00;;;23.30;99.90;;;;;;1055424;28;20016;-66
2022/08/22 01:00:06;;;;;;;4.55;1.77;;;23.30;99.90;;;;;;1055699;28;20461;-65
2022/08/22 01:00:46;;;;;;;3.63;1.80;;;23.30;99.90;;;;;;1055375;28;20350;-66
2022/08/22 01:01:24;;;;;;;2.78;1.70;;;23.30;99.90;;;;;;1055795;28;20034;-65
2022/08/22 01:02:13;;;;;;;5.47;2.13;;;23.30;99.90;;;;;;1055261;28;20085;-65
2022/08/22 01:02:55;;;;;;;2.45;1.63;;;23.30;99.90;;;;;;1055379;28;20022;-66
2022/08/22 01:03:29;;;;;;;3.53;1.80;;;23.30;99.90;;;;;;1051072;28;20059;-65
2022/08/22 01:04:17;;;;;;;2.75;1.85;;;23.30;99.90;;;;;;1049906;28;20545;-65
2022/08/22 01:05:06;;;;;;;2.92;1.67;;;23.30;99.90;;;;;;1049468;28;20104;-65
2022/08/22 01:05:49;;;;;;;3.67;1.90;;;23.30;99.90;;;;;;1055401;28;20122;-65
2022/08/22 01:06:22;;;;;;;3.58;1.85;;;23.30;99.90;;;;;;1055625;28;20045;-64
2022/08/22 01:07:18;;;;;;;6.35;2.38;;;23.30;99.90;;;;;;1050769;28;20051;-65
2022/08/22 01:07:54;;;;;;;2.88;1.67;;;23.30;99.90;;;;;;1051045;28;20026;-65
2022/08/22 01:08:36;;;;;;;2.92;1.58;;;23.20;99.90;;;;;;1051092;28;20034;-66
2022/08/22 01:09:46;;;;;;;4.30;1.73;;;23.30;99.90;;;;;;1050945;28;20069;-65
2022/08/22 01:10:57;;;;;;;4.10;1.50;;;23.30;99.90;;;;;;1032703;28;20057;-66
2022/08/22 01:12:04;;;;;;;4.00;1.38;;;23.20;99.90;;;;;;1038344;28;20294;-65
2022/08/22 01:12:55;;;;;;;2.58;1.65;;;23.20;99.90;;;;;;1051297;28;20095;-65
2022/08/22 01:13:42;;;;;;;4.00;2.00;;;23.20;99.90;;;;;;1050009;28;20127;-65
2022/08/22 01:14:31;;;;;;;4.57;2.28;;;23.20;99.90;;;;;;1051556;28;20024;-66
2022/08/22 01:15:08;;;;;;;7.38;2.28;;;23.20;99.90;;;;;;1051462;28;20105;-66
2022/08/22 01:15:41;;;;;;;4.20;1.95;;;23.20;99.90;;;;;;1051285;28;20016;-66
2022/08/22 01:16:50;;;;;;;5.53;2.30;;;23.20;99.90;;;;;;1052073;28;20456;-66
2022/08/22 01:17:32;;;;;;;4.70;1.90;;;23.20;99.90;;;;;;1038390;28;20108;-64
2022/08/22 01:18:44;;;;;;;2.80;1.70;;;23.20;99.90;;;;;;1038410;28;20109;-65
2022/08/22 01:19:37;;;;;;;4.68;2.00;;;23.20;99.90;;;;;;1040688;28;20028;-64
2022/08/22 01:20:34;;;;;;;2.33;1.63;;;23.20;99.90;;;;;;1051224;28;20008;-65
2022/08/22 01:21:29;;;;;;;2.88;1.58;;;23.20;99.90;;;;;;1051515;28;20107;-65
2022/08/22 01:22:22;;;;;;;3.28;1.75;;;23.20;99.90;;;;;;1051355;28;20379;-65
2022/08/22 01:23:13;;;;;;;3.80;1.50;;;23.20;99.90;;;;;;1051192;28;20017;-64
2022/08/22 01:24:08;;;;;;;5.25;1.88;;;23.20;99.90;;;;;;1051365;28;20486;-65
2022/08/22 01:25:19;;;;;;;3.75;2.10;;;23.20;99.90;;;;;;1051178;28;20020;-64
2022/08/22 01:26:27;;;;;;;5.35;1.80;;;23.10;99.90;;;;;;1051404;28;20013;-65
2022/08/22 01:27:56;;;;;;;3.35;1.70;;;23.10;99.90;;;;;;1054043;28;20463;-64
2022/08/22 01:28:44;;;;;;;5.40;1.88;;;23.10;99.90;;;;;;1055806;28;20024;-65
2022/08/22 01:30:00;;;;;;;4.90;1.70;;;23.10;99.90;;;;;;1055531;28;20624;-64
2022/08/22 01:30:57;;;;;;;3.90;2.05;;;23.10;99.90;;;;;;1057039;27;20053;-64
2022/08/22 01:32:06;;;;;;;6.05;2.08;;;23.10;99.90;;;;;;1059846;27;20080;-65
2022/08/22 01:32:54;;;;;;;3.60;1.85;;;23.10;99.90;;;;;;1051472;28;20024;-65
2022/08/22 01:34:09;;;;;;;2.75;1.50;;;23.10;99.90;;;;;;1053375;28;20008;-65
2022/08/22 01:34:42;;;;;;;2.63;1.77;;;23.10;99.90;;;;;;1046823;28;20078;-66
2022/08/22 01:35:43;;;;;;;2.92;1.48;;;23.10;99.90;;;;;;1049575;28;20023;-65
2022/08/22 01:36:21;;;;;;;4.18;2.05;;;23.10;99.90;;;;;;1054423;28;20023;-65
2022/08/22 01:37:03;;;;;;;2.75;1.70;;;23.10;99.90;;;;;;1055555;28;20403;-66
2022/08/22 01:38:07;;;;;;;3.80;1.70;;;23.10;99.90;;;;;;1055678;28;20028;-65
2022/08/22 01:39:01;;;;;;;3.50;2.08;;;23.10;99.90;;;;;;1055241;28;20632;-66
2022/08/22 01:39:55;;;;;;;5.43;2.08;;;23.10;99.90;;;;;;1055632;28;20678;-66
2022/08/22 01:40:34;;;;;;;4.47;2.03;;;23.10;99.90;;;;;;1055640;28;20023;-66
2022/08/22 01:41:36;;;;;;;3.47;1.98;;;23.10;99.90;;;;;;1055555;28;20020;-64
2022/08/22 01:42:47;;;;;;;4.05;1.83;;;23.10;99.90;;;;;;1055518;28;20059;-66
2022/08/22 01:43:39;;;;;;;4.30;2.55;;;23.10;99.90;;;;;;1055606;28;20055;-65
2022/08/22 01:44:36;;;;;;;3.97;1.73;;;23.10;99.90;;;;;;1055530;28;20107;-66
2022/08/22 01:45:13;;;;;;;4.07;2.00;;;23.10;99.90;;;;;;1055495;28;20024;-66
2022/08/22 01:46:22;;;;;;;3.92;1.90;;;23.10;99.90;;;;;;1054141;28;20103;-65
2022/08/22 01:47:07;;;;;;;2.47;1.80;;;23.10;99.90;;;;;;1037952;28;20049;-65
2022/08/22 01:47:52;;;;;;;2.33;1.65;;;23.10;99.90;;;;;;1038538;28;20516;-66
2022/08/22 01:48:48;;;;;;;2.75;1.70;;;23.10;99.90;;;;;;1038470;28;20235;-65
2022/08/22 01:49:47;;;;;;;3.45;1.98;;;23.10;99.90;;;;;;1038348;28;20071;-65
2022/08/22 01:50:32;;;;;;;3.47;1.77;;;23.10;99.90;;;;;;1037955;28;20021;-65
2022/08/22 01:51:16;;;;;;;5.03;2.10;;;23.10;99.90;;;;;;1038111;28;20132;-65
2022/08/22 01:52:28;;;;;;;2.20;1.58;;;23.10;99.90;;;;;;1038526;28;20392;-65
2022/08/22 01:53:15;;;;;;;5.05;2.30;;;23.10;99.90;;;;;;1037034;28;20033;-65
2022/08/22 01:54:06;;;;;;;3.47;2.00;;;23.00;99.90;;;;;;1038440;28;20708;-64
2022/08/22 01:54:50;;;;;;;3.42;1.80;;;23.00;99.90;;;;;;1042424;28;20053;-64
2022/08/22 01:55:50;;;;;;;3.33;1.85;;;23.00;99.90;;;;;;1042039;28;20029;-65
2022/08/22 01:56:24;;;;;;;4.40;2.00;;;23.00;99.90;;;;;;1038076;28;20558;-65
2022/08/22 01:57:01;;;;;;;3.40;2.20;;;22.90;99.90;;;;;;1038243;28;20029;-65
2022/08/22 01:57:53;;;;;;;4.30;1.80;;;23.00;99.90;;;;;;1042315;28;20169;-65
2022/08/22 01:58:29;;;;;;;3.50;2.10;;;23.00;99.90;;;;;;1042364;28;20048;-65
2022/08/22 01:59:04;;;;;;;2.97;1.70;;;23.00;99.90;;;;;;1050175;28;20024;-65
2022/08/22 01:59:39;;;;;;;4.07;2.00;;;23.00;99.90;;;;;;1055524;28;20047;-64
2022/08/22 02:00:16;;;;;;;3.50;1.83;;;23.00;99.90;;;;;;1055780;28;20425;-65
2022/08/22 02:00:52;;;;;;;3.10;1.83;;;23.00;99.90;;;;;;1054908;28;20111;-65
2022/08/22 02:01:31;;;;;;;4.38;1.75;;;23.00;99.90;;;;;;1055644;28;20030;-64
2022/08/22 02:02:34;;;;;;;4.18;1.95;;;23.00;99.90;;;;;;1055404;28;20584;-65
2022/08/22 02:03:29;;;;;;;3.45;1.95;;;23.00;99.90;;;;;;1051319;28;20027;-65
2022/08/22 02:04:33;;;;;;;2.97;1.77;;;23.00;99.90;;;;;;1052167;28;20871;-65
2022/08/22 02:05:38;;;;;;;4.40;1.83;;;23.00;99.90;;;;;;1055420;28;20012;-65
2022/08/22 02:06:15;;;;;;;4.30;2.30;;;23.00;99.90;;;;;;1051126;28;20012;-65
2022/08/22 02:07:16;;;;;;;3.65;1.90;;;22.90;99.90;;;;;;1051302;28;20076;-65
2022/08/22 02:07:59;;;;;;;4.47;2.10;;;23.00;99.90;;;;;;1051339;28;20019;-65
2022/08/22 02:09:08;;;;;;;4.60;2.05;;;23.00;99.90;;;;;;1051416;28;20028;-65
2022/08/22 02:10:01;;;;;;;4.22;2.22;;;23.00;99.90;;;;;;1034161;28;20026;-66
2022/08/22 02:11:01;;;;;;;4.70;2.20;;;23.00;99.90;;;;;;1036446;28;20028;-66
2022/08/22 02:11:37;;;;;;;3.88;1.95;;;22.90;99.90;;;;;;1050579;28;20103;-66
2022/08/22 02:12:25;;;;;;;7.00;2.13;;;22.90;99.90;;;;;;1050864;28;20096;-65
2022/08/22 02:13:12;;;;;;;4.57;2.35;;;22.90;99.90;;;;;;1046696;28;20028;-65
2022/08/22 02:13:55;;;;;;;3.20;1.63;;;22.90;99.90;;;;;;1051421;28;20371;-65
2022/08/22 02:14:31;;;;;;;3.28;1.98;;;22.90;99.90;;;;;;1053456;28;20014;-65
2022/08/22 02:15:24;;;;;;;3.78;1.50;;;22.90;99.90;;;;;;1055375;28;20046;-66
2022/08/22 02:16:13;;;;;;;4.07;2.35;;;22.90;99.90;;;;;;1055252;28;20445;-65
2022/08/22 02:16:51;;;;;;;5.82;2.13;;;22.90;99.90;;;;;;1055483;28;20438;-66
2022/08/22 02:17:28;;;;;;;4.32;1.85;;;22.90;99.90;;;;;;1055374;28;20022;-66
2022/08/22 02:18:05;;;;;;;3.20;1.88;;;22.90;99.90;;;;;;1055437;28;20038;-66
2022/08/22 02:18:58;;;;;;;3.25;1.88;;;22.90;99.90;;;;;;1055316;28;20100;-65
2022/08/22 02:19:39;;;;;;;5.63;2.05;;;22.90;99.90;;;;;;1055362;28;20107;-66
2022/08/22 02:20:21;;;;;;;3.92;2.05;;;22.90;99.90;;;;;;1055507;28;20145;-65
2022/08/22 02:21:03;;;;;;;4.85;2.10;;;22.90;99.90;;;;;;1055409;28;20024;-65
2022/08/22 02:21:54;;;;;;;2.78;1.60;;;22.90;99.90;;;;;;1055455;28;20020;-66
2022/08/22 02:22:34;;;;;;;3.22;1.90;;;22.90;99.90;;;;;;1055689;28;20790;-65
2022/08/22 02:23:33;;;;;;;3.13;2.30;;;22.90;99.90;;;;;;1055291;28;20415;-64
2022/08/22 02:24:36;;;;;;;3.97;1.88;;;22.90;99.90;;;;;;1055364;28;20508;-65
2022/08/22 02:25:18;;;;;;;3.88;2.28;;;22.90;99.90;;;;;;1050497;28;20070;-66
2022/08/22 02:25:55;;;;;;;4.22;2.28;;;22.90;99.90;;;;;;1051168;28;20111;-65
2022/08/22 02:26:43;;;;;;;4.03;2.10;;;22.90;99.90;;;;;;1054322;28;20015;-66
2022/08/22 02:27:46;;;;;;;4.20;2.20;;;22.90;99.90;;;;;;1055507;28;20837;-64
2022/08/22 02:29:00;;;;;;;4.97;2.00;;;22.90;99.90;;;;;;1051222;28;20026;-67
2022/08/22 02:29:40;;;;;;;3.47;1.98;;;22.80;99.90;;;;;;1051638;28;20016;-65
2022/08/22 02:30:21;;;;;;;3.25;1.88;;;22.80;99.90;;;;;;1055440;28;20410;-66
2022/08/22 02:31:00;;;;;;;4.25;2.03;;;22.80;99.90;;;;;;1051106;28;20073;-65
2022/08/22 02:32:01;;;;;;;3.00;1.70;;;22.80;99.90;;;;;;1054260;28;20305;-66
2022/08/22 02:32:36;;;;;;;5.07;2.03;;;22.80;99.90;;;;;;1048388;28;20019;-66
2022/08/22 02:33:13;;;;;;;3.38;1.85;;;22.90;99.90;;;;;;1055242;28;20015;-67
2022/08/22 02:33:44;;;;;;;2.80;1.50;;;22.80;99.90;;;;;;1055679;28;20505;-66
2022/08/22 02:34:57;;;;;;;4.32;1.77;;;22.80;99.90;;;;;;1055314;28;20080;-65
2022/08/22 02:35:41;;;;;;;5.30;2.45;;;22.80;99.90;;;;;;1055446;28;20058;-65
2022/08/22 02:36:26;;;;;;;3.80;2.10;;;22.80;99.90;;;;;;1055374;28;20402;-66
2022/08/22 02:37:28;;;;;;;2.92;1.73;;;22.80;99.90;;;;;;1055386;28;20027;-66
2022/08/22 02:38:37;;;;;;;5.13;1.90;;;22.80;99.90;;;;;;1055156;28;20041;-66
2022/08/22 02:39:32;;;;;;;7.40;2.38;;;22.80;99.90;;;;;;1055501;28;20019;-65
2022/08/22 02:40:13;;;;;;;3.47;1.95;;;22.80;99.90;;;;;;1055363;28;20455;-66
2022/08/22 02:40:59;;;;;;;3.72;1.80;;;22.80;99.90;;;;;;1055331;28;20023;-65
2022/08/22 02:41:45;;;;;;;5.07;2.67;;;22.80;99.90;;;;;;1055414;28;20027;-66
2022/08/22 02:42:20;;;;;;;3.38;1.83;;;22.80;99.90;;;;;;1054842;28;20126;-65
2022/08/22 02:43:13;;;;;;;5.60;2.38;;;22.80;99.90;;;;;;1050787;28;20016;-65
2022/08/22 02:43:53;;;;;;;4.45;2.15;;;22.80;99.90;;;;;;1046594;28;20475;-64
2022/08/22 02:44:32;;;;;;;4.93;1.80;;;22.80;99.90;;;;;;1047295;28;20025;-66
2022/08/22 02:45:15;;;;;;;4.20;2.05;;;22.80;99.90;;;;;;1053324;28;20012;-65
2022/08/22 02:45:59;;;;;;;7.65;2.55;;;22.80;99.90;;;;;;1051546;28;20028;-64
2022/08/22 02:46:52;;;;;;;3.60;2.05;;;22.80;99.90;;;;;;1051288;28;20630;-66
2022/08/22 02:47:45;;;;;;;4.15;2.42;;;22.80;99.90;;;;;;1055493;28;20103;-66
2022/08/22 02:48:39;;;;;;;4.15;1.90;;;22.80;99.90;;;;;;1055180;28;20483;-68
2022/08/22 02:49:34;;;;;;;4.75;2.72;;;22.70;99.90;;;;;;1054557;28;20114;-66
2022/08/22 02:50:31;;;;;;;2.88;1.65;;;22.70;99.90;;;;;;1055198;28;20107;-66
2022/08/22 02:51:44;;;;;;;3.40;2.35;;;22.70;99.90;;;;;;1043839;28;20036;-66
2022/08/22 02:52:25;;;;;;;3.35;2.03;;;22.70;99.90;;;;;;1055257;28;20064;-65
2022/08/22 02:53:07;;;;;;;3.50;1.77;;;22.70;99.90;;;;;;1055224;28;20024;-65
2022/08/22 02:53:44;;;;;;;3.90;2.42;;;22.70;99.90;;;;;;1055488;28;20024;-66
2022/08/22 02:54:29;;;;;;;4.18;1.98;;;22.70;99.90;;;;;;1055215;28;20113;-66
2022/08/22 02:55:07;;;;;;;3.40;1.83;;;22.70;99.90;;;;;;1055337;28;20062;-65
2022/08/22 02:55:52;;;;;;;5.32;2.13;;;22.70;99.90;;;;;;1055434;28;20032;-66
2022/08/22 02:56:36;;;;;;;4.22;2.00;;;22.70;99.90;;;;;;1055332;28;20031;-66
2022/08/22 02:57:12;;;;;;;3.00;1.92;;;22.70;99.90;;;;;;1054355;28;20016;-66
2022/08/22 02:57:43;;;;;;;2.63;1.92;;;22.70;99.90;;;;;;1050862;28;20469;-66
2022/08/22 02:58:50;;;;;;;3.50;2.00;;;22.70;99.90;;;;;;1050881;28;20588;-66
2022/08/22 02:59:38;;;;;;;3.40;1.58;;;22.70;99.90;;;;;;1047435;28;20277;-65
2022/08/22 03:00:25;;;;;;;5.47;2.17;;;22.70;99.90;;;;;;1051780;28;20012;-65
2022/08/22 03:01:02;;;;;;;;;;;22.70;99.90;;;;;;1055791;28;20016;-65
2022/08/22 03:01:37;;;;;;;3.45;2.35;;;22.70;99.90;;;;;;1055253;28;19960;-65
2022/08/22 03:02:36;;;;;;;3.03;1.70;;;22.70;99.90;;;;;;1055436;28;20333;-65
2022/08/22 03:03:18;;;;;;;4.40;1.98;;;22.70;99.90;;;;;;1051015;28;20028;-65
2022/08/22 03:03:51;;;;;;;3.75;1.55;;;22.70;99.90;;;;;;1050611;28;20020;-66
2022/08/22 03:04:29;;;;;;;4.38;1.75;;;22.80;99.90;;;;;;1050724;28;20115;-66
2022/08/22 03:05:15;;;;;;;3.47;1.73;;;22.70;99.90;;;;;;1054040;28;20103;-66
2022/08/22 03:05:55;;;;;;;3.30;2.13;;;22.70;99.90;;;;;;1055294;28;20028;-65
2022/08/22 03:06:40;;;;;;;3.67;1.83;;;22.70;99.90;;;;;;1055654;28;20020;-65
2022/08/22 03:07:28;;;;;;;2.80;1.92;;;22.70;99.90;;;;;;1055256;28;20020;-65
2022/08/22 03:08:12;;;;;;;4.43;2.17;;;22.70;99.90;;;;;;1055153;28;20710;-65
2022/08/22 03:09:20;;;;;;;5.90;2.40;;;22.70;99.90;;;;;;1055269;28;20020;-65
2022/08/22 03:10:03;;;;;;;5.07;2.42;;;22.70;99.90;;;;;;1055295;28;20030;-65
2022/08/22 03:10:42;;;;;;;3.28;1.75;;;22.70;99.90;;;;;;1055476;28;20023;-64
2022/08/22 03:11:29;;;;;;;2.08;1.85;;;22.70;99.90;;;;;;1055132;28;20103;-65
2022/08/22 03:12:20;;;;;;;3.25;2.05;;;22.70;99.90;;;;;;1055057;28;20027;-65
2022/08/22 03:13:20;;;;;;;5.43;2.55;;;22.70;99.90;;;;;;1052086;28;20035;-66
2022/08/22 03:14:11;;;;;;;3.03;2.00;;;22.70;99.90;;;;;;1038294;28;20030;-65
2022/08/22 03:15:05;;;;;;;3.78;2.00;;;22.70;99.90;;;;;;1051285;28;20017;-65
2022/08/22 03:15:53;;;;;;;3.70;2.38;;;22.60;99.90;;;;;;1038004;28;20416;-67
2022/08/22 03:16:32;;;;;;;2.88;1.88;;;22.70;99.90;;;;;;1041407;28;20052;-66
2022/08/22 03:17:19;;;;;;;2.45;1.65;;;22.60;99.90;;;;;;1051125;28;20070;-65
2022/08/22 03:18:05;;;;;;;3.53;2.03;;;22.60;99.90;;;;;;1053664;28;20016;-66
2022/08/22 03:18:52;;;;;;;3.10;1.90;;;22.70;99.90;;;;;;1055282;28;20024;-65
2022/08/22 03:19:29;;;;;;;2.60;1.83;;;22.60;99.90;;;;;;1055097;28;20669;-65
2022/08/22 03:20:11;;;;;;;3.03;1.70;;;22.60;99.90;;;;;;1055459;28;20015;-65
2022/08/22 03:20:49;;;;;;;3.17;1.92;;;22.60;99.90;;;;;;1055199;28;20099;-64
2022/08/22 03:21:35;;;;;;;3.42;1.95;;;22.60;99.90;;;;;;1055202;28;20057;-64
2022/08/22 03:22:15;;;;;;;6.20;1.92;;;22.60;99.90;;;;;;1055542;28;20383;-65
2022/08/22 03:23:06;;;;;;;3.40;2.25;;;22.60;99.90;;;;;;1055162;28;20047;-66
2022/08/22 03:24:21;;;;;;;2.70;2.03;;;22.60;99.90;;;;;;1055226;28;20813;-65
2022/08/22 03:25:03;;;;;;;3.47;2.22;;;22.60;99.90;;;;;;1053071;28;20024;-65
2022/08/22 03:26:26;;;;;;;3.95;2.00;;;22.60;99.90;;;;;;1046819;28;20020;-65
2022/08/22 03:27:05;;;;;;;4.13;1.83;;;22.60;99.90;;;;;;1040718;28;20038;-65
2022/08/22 03:27:40;;;;;;;;;;;22.60;99.90;;;;;;1045611;28;20029;-65
2022/08/22 03:28:20;;;;;;;8.02;2.45;;;22.60;99.90;;;;;;1054438;28;19908;-66
2022/08/22 03:29:00;;;;;;;4.20;2.03;;;22.60;99.90;;;;;;1056162;28;20023;-64
2022/08/22 03:29:43;;;;;;;3.28;2.10;;;22.60;99.90;;;;;;1056271;28;20003;-64
2022/08/22 03:30:29;;;;;;;4.15;2.15;;;22.60;99.90;;;;;;1056252;28;20372;-64
2022/08/22 03:31:11;;;;;;;4.05;1.88;;;22.60;99.90;;;;;;1055850;28;20017;-65
2022/08/22 03:32:13;;;;;;;3.83;2.13;;;22.60;99.90;;;;;;1047710;28;20139;-65
2022/08/22 03:32:54;;;;;;;7.65;2.65;;;22.60;99.90;;;;;;1047488;28;20120;-65
2022/08/22 03:33:30;;;;;;;2.55;1.65;;;22.60;99.90;;;;;;1050030;28;20040;-65
2022/08/22 03:34:23;;;;;;;3.97;2.08;;;22.60;99.90;;;;;;1051839;28;20051;-65
2022/08/22 03:35:01;;;;;;;3.20;2.28;;;22.60;99.90;;;;;;1051854;28;20011;-65
2022/08/22 03:35:32;;;;;;;;;;;22.60;99.90;;;;;;1052547;28;20360;-66
2022/08/22 03:36:23;;;;;;;3.50;2.00;;;22.60;99.90;;;;;;1051815;28;20271;-65
2022/08/22 03:37:36;;;;;;;4.82;2.15;;;22.60;99.90;;;;;;1051722;28;20019;-65
2022/08/22 03:38:44;;;;;;;4.22;2.33;;;22.60;99.90;;;;;;1040318;28;20116;-65
2022/08/22 03:39:21;;;;;;;4.18;2.28;;;22.60;99.90;;;;;;1042791;28;20091;-64
2022/08/22 03:40:19;;;;;;;4.85;2.60;;;22.60;99.90;;;;;;1043128;28;20057;-65
2022/08/22 03:41:14;;;;;;;2.67;1.77;;;22.60;99.90;;;;;;1045525;28;20063;-65
2022/08/22 03:42:19;;;;;;;3.45;1.95;;;22.60;99.90;;;;;;1050319;28;20410;-65
2022/08/22 03:43:08;;;;;;;4.28;2.03;;;22.60;99.90;;;;;;1034548;28;20025;-67
2022/08/22 03:44:26;;;;;;;3.33;2.05;;;22.60;99.90;;;;;;1038768;28;20028;-66
2022/08/22 03:45:25;;;;;;;3.38;2.20;;;22.50;99.90;;;;;;1038765;28;20041;-65
2022/08/22 03:46:29;;;;;;;3.65;2.22;;;22.60;99.90;;;;;;1036279;28;20128;-67
2022/08/22 03:47:30;;;;;;;3.15;2.10;;;22.50;99.90;;;;;;1055834;28;20016;-65
2022/08/22 03:48:22;;;;;;;3.97;2.10;;;22.50;99.90;;;;;;1051914;28;20047;-65
2022/08/22 03:49:12;;;;;;;3.97;1.90;;;22.50;99.90;;;;;;1046997;28;20025;-65
2022/08/22 03:50:20;;;;;;;4.63;2.30;;;22.50;99.90;;;;;;1047313;28;20024;-65
2022/08/22 03:51:32;;;;;;;3.47;2.20;;;22.50;99.90;;;;;;1051743;28;20020;-65
2022/08/22 03:53:05;;;;;;;3.97;1.95;;;22.50;99.90;;;;;;1040285;28;20040;-66
2022/08/22 03:53:32;;;;;;;3.53;2.20;;;22.50;99.90;;;;;;1038240;28;20029;-64
2022/08/22 03:54:16;;;;;;;4.18;1.80;;;22.50;99.90;;;;;;1038425;28;20034;-65
2022/08/22 03:54:52;;;;;;;3.40;2.10;;;22.50;99.90;;;;;;1050751;28;20112;-65
2022/08/22 03:55:43;;;;;;;4.22;1.98;;;22.50;99.90;;;;;;1053662;28;20559;-66
2022/08/22 03:56:39;;;;;;;5.30;2.20;;;22.50;99.90;;;;;;1055320;28;20039;-65
2022/08/22 03:57:41;;;;;;;4.13;2.15;;;22.50;99.90;;;;;;1051582;28;20077;-65
2022/08/22 03:58:43;;;;;;;4.63;2.10;;;22.50;99.90;;;;;;1054336;28;20103;-65
2022/08/22 03:59:38;;;;;;;3.60;2.40;;;22.50;99.90;;;;;;1054344;28;20026;-65
2022/08/22 04:00:23;;;;;;;3.55;2.22;;;22.50;99.90;;;;;;1051866;28;20031;-65
2022/08/22 04:01:03;;;;;;;6.78;3.88;;;22.50;99.90;;;;;;1051897;28;20098;-65
2022/08/22 04:01:55;;;;;;;4.15;1.85;;;22.50;99.90;;;;;;1053626;28;20024;-64
2022/08/22 04:02:53;;;;;;;4.03;1.73;;;22.50;99.90;;;;;;1052225;28;20020;-65
2022/08/22 04:03:58;;;;;;;4.93;2.08;;;22.50;99.90;;;;;;1055137;28;20090;-65
2022/08/22 04:05:01;;;;;;;4.10;1.98;;;22.50;99.90;;;;;;1047105;28;20060;-65
2022/08/22 04:05:42;;;;;;;3.75;2.08;;;22.50;99.90;;;;;;1049704;28;20028;-65
2022/08/22 04:06:30;;;;;;;3.25;1.90;;;22.40;99.90;;;;;;1047396;28;20029;-65
2022/08/22 04:07:10;;;;;;;2.88;1.92;;;22.40;99.90;;;;;;1046952;28;20044;-66
2022/08/22 04:08:03;;;;;;;3.30;2.22;;;22.40;99.90;;;;;;1047156;28;20032;-65
2022/08/22 04:08:54;;;;;;;3.83;2.15;;;22.50;99.90;;;;;;1051955;28;20023;-66
2022/08/22 04:09:44;;;;;;;3.17;2.00;;;22.50;99.90;;;;;;1054583;28;20027;-65
2022/08/22 04:10:42;;;;;;;4.25;2.08;;;22.40;99.90;;;;;;1053837;28;20487;-64
2022/08/22 04:11:22;;;;;;;3.67;1.90;;;22.50;99.90;;;;;;1053549;28;20020;-66
2022/08/22 04:12:24;;;;;;;2.78;1.98;;;22.50;99.90;;;;;;1053466;28;20028;-66
2022/08/22 04:13:28;;;;;;;3.30;1.80;;;22.40;99.90;;;;;;1055251;28;20106;-64
2022/08/22 04:14:23;;;;;;;4.07;2.42;;;22.40;99.90;;;;;;1052960;28;20016;-65
2022/08/22 04:15:10;;;;;;;2.60;1.80;;;22.50;99.90;;;;;;1052527;28;20043;-66
2022/08/22 04:16:05;;;;;;;3.53;1.90;;;22.50;99.90;;;;;;1052287;28;20088;-65
2022/08/22 04:17:03;;;;;;;3.53;2.03;;;22.50;99.90;;;;;;1052840;28;20057;-65
2022/08/22 04:17:52;;;;;;;5.38;2.67;;;22.50;99.90;;;;;;1051991;28;20031;-66
2022/08/22 04:18:28;;;;;;;3.38;1.90;;;22.40;99.90;;;;;;1053404;28;20100;-66
2022/08/22 04:19:26;;;;;;;5.50;2.00;;;22.40;99.90;;;;;;1051630;28;20430;-64
2022/08/22 04:20:19;;;;;;;3.97;1.90;;;22.50;99.90;;;;;;1052715;28;20032;-65
2022/08/22 04:21:29;;;;;;;4.25;2.40;;;22.40;99.90;;;;;;1054671;28;20036;-66
2022/08/22 04:22:08;;;;;;;4.57;2.10;;;22.40;99.90;;;;;;1030429;28;20085;-66